Terminal Aerodrome Forecast
Issued by NWS Charleston, SC

Home | Current Version | Previous Version | Text Only | Print | Product List | Glossary On
Versions: 1 2 3 4 5 6 7 8 9 10 11 12 13 14 15 16 17 18
905
FTUS42 KCHS 051739
TAFCHS
TAF
KCHS 051739Z 0518/0618 02007KT P6SM BKN006 OVC020
     FM052000 04008KT P6SM SCT006 OVC010
     FM060100 06009KT 5SM -RA BR SCT003 OVC008
     FM060500 10009KT 3SM RA BR OVC003
     FM061500 20010KT 5SM -RA BR OVC005=

USA.gov is the U.S. government's official web portal to all federal, state and local government web resources and services.